TFM - Tactical Decision Aid
ID: Runway Winds: CIG/VIS Threshold:

KORD - Chicago/O'Hare Intl, IL, US

Updated at: 1129 UTC 25 Jun 2019
Latest TAF at: 0900 UTC 25 Jun 2019

TAF Board

Time1051Z 25/12Z 25/13Z 25/14Z 25/15Z 25/16Z 25/17Z 25/18Z 25/19Z 25/20Z 25/21Z 25/22Z 25/23Z 26/00Z>>
Type OBS PRVL PRVL PRVL PRVL PRVL PRVL PRVL PRVL PRVL PRVL PRVL PRVL PRVL
VIS 10 >6 >6 >6 >6 >6 >6 >6 >6 >6 >6 >6 >6 >6
CIG -- -- -- -- -- -- -- -- -- -- -- -- -- --
Cover FEW FEW FEW FEW FEW SCT SCT SCT SCT SCT SCT SCT SCT SCT
FltCat VFR VFR VFR VFR VFR VFR VFR VFR VFR VFR VFR VFR VFR VFR
WX -- -- -- -- -- -- -- -- -- -- -- -- -- --
WDir 230 240 240 240 240 240 240 240 240 240 240 240 240 240
WSpd 7 9 9 9 9 15 15 15 15 15 15 15 15 15
WGst -- -- -- -- -- 24 24 24 24 24 24 24 24 24

TDA Impact Legend

  None Marginal Slight Moderate High
Visibility (sm) >5 3≤X≤5 1≤X<3 0.5≤X<1 <0.5
Ceiling (100 ft) >30 10≤X≤30 4≤X<10 2≤X<4 <2
Wind Speed (kt) <15 15≤X<25 25≤X<30 ≥30
Wind Gust (kt) <15 15≤X<25 25≤X<35 ≥35
Weather No Wx Reported VCTS -TS,-FZRA TS,FZRA +TS,+FZRA
TAF
KORD 250900Z 2509/2612 24009KT P6SM FEW060
  FM251600 24015G24KT P6SM SCT080
  FM260100 23011KT P6SM SCT050 BKN150


METAR
KORD 251051Z 23007KT 10SM FEW130 17/14 A2982 RMK AO2 SLP096 T01720144
KORD 250951Z 23006KT 10SM CLR 17/14 A2981 RMK AO2 SLP090 T01670144
KORD 250851Z 22007KT 10SM CLR 17/14 A2979 RMK AO2 SLP082 T01670144 53013

Radar Display
Forecast Discussion